createdAt,value
2023-06-25T00:02:26.387Z,15.00
2023-06-25T00:04:53.342Z,14.90
2023-06-25T00:07:20.779Z,15.00
2023-06-25T00:09:55.776Z,14.90
2023-06-25T00:12:29.307Z,14.80
2023-06-25T00:14:56.616Z,14.80
2023-06-25T00:17:28.697Z,14.80
2023-06-25T00:19:57.610Z,14.70
2023-06-25T00:22:28.122Z,14.70
2023-06-25T00:24:57.999Z,14.80
2023-06-25T00:27:24.865Z,14.80
2023-06-25T00:29:52.259Z,14.80
2023-06-25T00:32:22.032Z,14.70
2023-06-25T00:34:50.640Z,14.70
2023-06-25T00:37:18.913Z,14.60
2023-06-25T00:39:47.842Z,14.60
2023-06-25T00:42:17.109Z,14.60
2023-06-25T00:44:48.347Z,14.60
2023-06-25T00:47:17.729Z,14.50
2023-06-25T00:49:46.234Z,14.50
2023-06-25T00:52:15.690Z,14.50
2023-06-25T00:54:45.044Z,14.50
2023-06-25T00:57:12.331Z,14.50
2023-06-25T00:59:47.681Z,14.60
2023-06-25T01:02:28.219Z,14.60
2023-06-25T01:05:15.297Z,14.70
2023-06-25T01:07:46.385Z,14.70
2023-06-25T01:10:14.686Z,14.70
2023-06-25T01:12:47.918Z,14.80
2023-06-25T01:15:15.265Z,14.80
2023-06-25T01:17:46.688Z,14.80
2023-06-25T01:20:14.432Z,14.90
2023-06-25T01:22:42.309Z,14.90
2023-06-25T01:25:13.502Z,14.90
2023-06-25T01:27:47.313Z,15.00
2023-06-25T01:30:17.474Z,15.00
2023-06-25T01:32:48.769Z,14.90
2023-06-25T01:35:20.078Z,15.00
2023-06-25T01:37:48.437Z,14.90
2023-06-25T01:40:15.353Z,14.90
2023-06-25T01:42:45.435Z,14.90
2023-06-25T01:45:12.907Z,14.90
2023-06-25T01:47:42.779Z,14.90
2023-06-25T01:50:10.536Z,14.80
2023-06-25T01:52:38.803Z,14.80
2023-06-25T01:55:07.397Z,14.70
2023-06-25T01:57:35.153Z,14.70
2023-06-25T02:00:05.210Z,14.70
2023-06-25T02:02:44.759Z,14.60
2023-06-25T02:05:13.358Z,14.60
2023-06-25T02:07:40.310Z,14.60
2023-06-25T02:10:10.578Z,14.50
2023-06-25T02:12:38.121Z,14.50
2023-06-25T02:15:05.542Z,14.40
2023-06-25T02:17:34.797Z,14.40
2023-06-25T02:20:03.374Z,14.40
2023-06-25T02:22:32.879Z,14.30
2023-06-25T02:25:02.181Z,14.30
2023-06-25T02:27:29.419Z,14.40
2023-06-25T02:29:56.575Z,14.40
2023-06-25T02:32:23.870Z,14.40
2023-06-25T02:34:53.763Z,14.40
2023-06-25T02:37:23.161Z,14.50
2023-06-25T02:39:50.027Z,14.50
2023-06-25T02:42:21.351Z,14.40
2023-06-25T02:44:48.262Z,14.50
2023-06-25T02:47:15.188Z,14.50
2023-06-25T02:49:44.381Z,14.60
2023-06-25T02:52:11.262Z,14.60
2023-06-25T02:54:40.207Z,14.60
2023-06-25T02:57:07.098Z,14.60
2023-06-25T02:59:34.358Z,14.70
2023-06-25T03:02:01.797Z,14.70
2023-06-25T03:04:29.794Z,14.70
2023-06-25T03:06:57.803Z,14.70
2023-06-25T03:09:26.111Z,14.70
2023-06-25T03:11:56.752Z,14.80
2023-06-25T03:14:34.103Z,14.80
2023-06-25T03:17:03.777Z,14.80
2023-06-25T03:19:30.926Z,14.80
2023-06-25T03:21:58.235Z,14.80
2023-06-25T03:24:25.281Z,14.80
2023-06-25T03:26:53.849Z,14.80
2023-06-25T03:29:20.787Z,14.90
2023-06-25T03:31:47.674Z,14.90
2023-06-25T03:34:18.294Z,14.90
2023-06-25T03:36:48.688Z,14.90
2023-06-25T03:39:16.073Z,14.90
2023-06-25T03:41:45.530Z,14.90
2023-06-25T03:44:13.925Z,14.90
2023-06-25T03:46:41.232Z,15.00
2023-06-25T03:49:10.360Z,15.00
2023-06-25T03:51:37.862Z,15.10
2023-06-25T03:54:05.824Z,15.10
2023-06-25T03:56:32.801Z,15.20
2023-06-25T03:59:00.884Z,15.30
2023-06-25T04:01:28.152Z,15.30
2023-06-25T04:03:55.119Z,15.40
2023-06-25T04:06:23.231Z,15.50
2023-06-25T04:08:52.681Z,15.50
2023-06-25T04:11:20.290Z,15.50
2023-06-25T04:13:47.409Z,15.60
2023-06-25T04:16:14.833Z,15.60
2023-06-25T04:18:44.965Z,15.70
2023-06-25T04:21:12.063Z,15.70
2023-06-25T04:23:39.104Z,15.70
2023-06-25T04:26:08.720Z,15.70
2023-06-25T04:28:41.755Z,15.80
2023-06-25T04:31:09.105Z,15.90
2023-06-25T04:33:42.897Z,15.90
2023-06-25T04:36:15.702Z,16.00
2023-06-25T04:38:45.227Z,16.00
2023-06-25T04:41:13.135Z,16.10
2023-06-25T04:43:41.308Z,16.10
2023-06-25T04:46:12.126Z,16.10
2023-06-25T04:48:45.334Z,16.10
2023-06-25T04:51:12.891Z,16.20
2023-06-25T04:53:41.179Z,16.20
2023-06-25T04:56:09.100Z,16.30
2023-06-25T04:58:37.326Z,16.30
2023-06-25T05:01:05.202Z,16.40
2023-06-25T05:03:33.266Z,16.40
2023-06-25T05:06:04.614Z,16.50
2023-06-25T05:08:32.045Z,16.60
2023-06-25T05:10:58.923Z,16.60
2023-06-25T05:13:25.804Z,16.70
2023-06-25T05:15:52.767Z,16.80
2023-06-25T05:18:20.015Z,16.80
2023-06-25T05:20:47.036Z,16.80
2023-06-25T05:23:13.940Z,16.90
2023-06-25T05:25:42.322Z,17.00
2023-06-25T05:28:09.255Z,17.10
2023-06-25T05:30:37.642Z,17.10
2023-06-25T05:33:05.883Z,17.10
2023-06-25T05:35:34.009Z,17.30
2023-06-25T05:38:01.361Z,17.30
2023-06-25T05:40:32.204Z,17.40
2023-06-25T05:43:01.853Z,17.40
2023-06-25T05:45:28.805Z,17.40
2023-06-25T05:47:55.788Z,17.40
2023-06-25T05:50:25.121Z,17.50
2023-06-25T05:52:54.940Z,17.70
2023-06-25T05:55:21.929Z,17.80
2023-06-25T05:57:48.860Z,17.90
2023-06-25T06:00:16.149Z,17.90
2023-06-25T06:02:47.522Z,17.90
2023-06-25T06:05:20.064Z,18.10
2023-06-25T06:07:50.403Z,18.10
2023-06-25T06:10:17.947Z,18.20
2023-06-25T06:12:44.814Z,18.30
2023-06-25T06:15:12.338Z,18.40
2023-06-25T06:17:39.239Z,18.50
2023-06-25T06:20:08.487Z,18.60
2023-06-25T06:22:36.239Z,18.70
2023-06-25T06:25:04.449Z,18.80
2023-06-25T06:27:32.737Z,18.80
2023-06-25T06:29:59.747Z,18.90
2023-06-25T06:32:26.719Z,19.00
2023-06-25T06:34:54.277Z,19.20
2023-06-25T06:37:21.190Z,19.20
2023-06-25T06:39:48.321Z,19.40
2023-06-25T06:42:15.256Z,19.40
2023-06-25T06:44:42.877Z,19.60
2023-06-25T06:47:11.157Z,19.80
2023-06-25T06:49:39.647Z,19.80
2023-06-25T06:52:08.075Z,19.90
2023-06-25T06:54:34.941Z,20.00
2023-06-25T06:57:04.504Z,20.10
2023-06-25T06:59:33.358Z,20.10
2023-06-25T07:02:07.108Z,20.20
2023-06-25T07:04:35.002Z,20.20
2023-06-25T07:07:01.948Z,20.30
2023-06-25T07:09:29.002Z,20.40
2023-06-25T07:11:55.921Z,20.40
2023-06-25T07:14:24.913Z,20.30
2023-06-25T07:16:52.065Z,20.40
2023-06-25T07:19:18.987Z,20.60
2023-06-25T07:21:48.210Z,20.60
2023-06-25T07:24:15.106Z,20.70
2023-06-25T07:26:43.142Z,20.80
2023-06-25T07:29:18.955Z,20.90
2023-06-25T07:31:46.000Z,21.10
2023-06-25T07:34:13.461Z,21.20
2023-06-25T07:36:40.337Z,21.40
2023-06-25T07:39:07.369Z,21.50
2023-06-25T07:41:35.587Z,21.80
2023-06-25T07:44:13.693Z,21.70
2023-06-25T07:46:50.734Z,21.90
2023-06-25T07:49:17.987Z,22.00
2023-06-25T07:51:47.662Z,22.10
2023-06-25T07:54:18.528Z,22.20
2023-06-25T07:56:45.590Z,22.30
2023-06-25T07:59:15.823Z,22.40
2023-06-25T08:01:43.303Z,22.70
2023-06-25T08:04:10.374Z,22.70
2023-06-25T08:06:38.162Z,22.80
2023-06-25T08:09:11.866Z,23.00
2023-06-25T08:11:41.468Z,23.10
2023-06-25T08:14:12.451Z,23.20
2023-06-25T08:16:39.641Z,23.10
2023-06-25T08:19:07.869Z,23.00
2023-06-25T08:21:35.706Z,23.10
2023-06-25T08:24:06.792Z,23.20
2023-06-25T08:26:35.466Z,23.20
2023-06-25T08:29:02.919Z,23.30
2023-06-25T08:31:29.987Z,23.10
2023-06-25T08:33:59.070Z,23.20
2023-06-25T08:36:27.147Z,23.40
2023-06-25T08:38:55.786Z,23.40
2023-06-25T08:41:24.762Z,23.40
2023-06-25T08:43:53.122Z,23.40
2023-06-25T08:46:26.390Z,23.30
2023-06-25T08:48:55.806Z,23.30
2023-06-25T08:51:26.629Z,23.50
2023-06-25T08:53:58.311Z,23.70
2023-06-25T08:56:26.898Z,23.70
2023-06-25T08:58:58.184Z,23.70
2023-06-25T09:01:29.361Z,23.90
2023-06-25T09:04:00.542Z,23.90
2023-06-25T09:06:28.113Z,24.00
2023-06-25T09:08:59.654Z,24.10
2023-06-25T09:11:35.169Z,24.10
2023-06-25T09:14:06.019Z,23.90
2023-06-25T09:16:33.312Z,23.90
2023-06-25T09:19:03.363Z,23.80
2023-06-25T09:21:39.871Z,23.70
2023-06-25T09:24:21.131Z,23.90
2023-06-25T09:26:51.774Z,23.90
2023-06-25T09:29:20.485Z,24.00
2023-06-25T09:31:55.593Z,23.90
2023-06-25T09:34:24.368Z,24.00
2023-06-25T09:36:52.969Z,24.10
2023-06-25T09:39:23.678Z,24.20
2023-06-25T09:41:53.909Z,24.30
2023-06-25T09:44:22.412Z,24.20
2023-06-25T09:46:54.993Z,23.90
2023-06-25T09:49:23.517Z,24.00
2023-06-25T09:52:05.870Z,24.10
2023-06-25T09:54:41.280Z,24.20
2023-06-25T09:57:18.512Z,24.20
2023-06-25T09:59:47.010Z,24.10
2023-06-25T10:02:16.863Z,24.20
2023-06-25T10:04:45.518Z,24.50
2023-06-25T10:07:13.405Z,24.40
2023-06-25T10:09:40.711Z,24.30
2023-06-25T10:12:11.230Z,24.40
2023-06-25T10:14:40.200Z,24.50
2023-06-25T10:17:07.833Z,24.70
2023-06-25T10:19:36.600Z,24.90
2023-06-25T10:22:24.212Z,24.70
2023-06-25T10:24:54.175Z,24.60
2023-06-25T10:27:32.152Z,24.80
2023-06-25T10:30:00.539Z,25.00
2023-06-25T10:32:31.535Z,24.90
2023-06-25T10:35:05.470Z,24.80
2023-06-25T10:37:36.446Z,24.60
2023-06-25T10:40:05.034Z,24.60
2023-06-25T10:42:38.524Z,24.70
2023-06-25T10:45:07.992Z,24.50
2023-06-25T10:47:35.741Z,24.60
2023-06-25T10:50:04.455Z,24.60
2023-06-25T10:52:35.525Z,24.70
2023-06-25T10:55:03.499Z,24.80
2023-06-25T10:57:32.716Z,24.90
2023-06-25T11:00:00.408Z,25.00
2023-06-25T11:02:27.361Z,25.10
2023-06-25T11:04:59.906Z,24.90
2023-06-25T11:07:38.791Z,24.80
2023-06-25T11:10:09.367Z,24.60
2023-06-25T11:12:36.273Z,24.50
2023-06-25T11:15:06.255Z,24.60
2023-06-25T11:17:38.368Z,24.80
2023-06-25T11:20:05.701Z,24.80
2023-06-25T11:22:32.586Z,24.90
2023-06-25T11:25:07.122Z,25.10
2023-06-25T11:27:34.645Z,25.20
2023-06-25T11:30:07.791Z,25.20
2023-06-25T11:32:39.979Z,25.40
2023-06-25T11:35:15.048Z,25.30
2023-06-25T11:37:44.540Z,25.30
2023-06-25T11:40:23.074Z,25.50
2023-06-25T11:42:53.734Z,25.60
2023-06-25T11:45:24.884Z,25.50
2023-06-25T11:47:56.020Z,25.50
2023-06-25T11:50:27.598Z,25.50
2023-06-25T11:52:58.823Z,25.30
2023-06-25T11:55:26.062Z,25.10
2023-06-25T11:57:53.205Z,24.90
2023-06-25T12:00:20.310Z,24.80
2023-06-25T12:02:50.767Z,24.80
2023-06-25T12:05:18.306Z,25.00
2023-06-25T12:07:45.236Z,25.10
2023-06-25T12:10:12.298Z,25.50
2023-06-25T12:12:42.049Z,25.50
2023-06-25T12:15:09.370Z,25.50
2023-06-25T12:17:37.284Z,25.50
2023-06-25T12:20:09.955Z,25.60
2023-06-25T12:22:37.365Z,25.40
2023-06-25T12:25:05.573Z,25.50
2023-06-25T12:27:32.613Z,25.50
2023-06-25T12:29:59.718Z,25.70
2023-06-25T12:32:29.225Z,25.90
2023-06-25T12:34:57.642Z,26.00
2023-06-25T12:37:26.387Z,26.00
2023-06-25T12:39:57.829Z,26.10
2023-06-25T12:42:25.142Z,26.20
2023-06-25T12:44:55.112Z,26.20
2023-06-25T12:47:24.647Z,26.20
2023-06-25T12:49:52.876Z,26.40
2023-06-25T12:52:19.844Z,26.20
2023-06-25T12:54:47.613Z,26.10
2023-06-25T12:57:14.473Z,26.20
2023-06-25T12:59:46.388Z,26.40
2023-06-25T13:02:14.453Z,26.40
2023-06-25T13:04:42.513Z,26.30
2023-06-25T13:07:09.559Z,26.30
2023-06-25T13:09:36.445Z,26.30
2023-06-25T13:12:04.754Z,26.40
2023-06-25T13:14:31.639Z,26.30
2023-06-25T13:16:59.038Z,26.10
2023-06-25T13:19:27.453Z,26.20
2023-06-25T13:21:59.633Z,26.20
2023-06-25T13:24:26.818Z,26.20
2023-06-25T13:26:54.395Z,26.40
2023-06-25T13:29:22.379Z,26.40
2023-06-25T13:31:51.359Z,26.10
2023-06-25T13:34:19.839Z,26.10
2023-06-25T13:36:48.760Z,26.10
2023-06-25T13:39:17.530Z,26.20
2023-06-25T13:41:46.469Z,26.20
2023-06-25T13:44:13.397Z,26.20
2023-06-25T13:46:40.974Z,26.20
2023-06-25T13:49:11.052Z,26.20
2023-06-25T13:51:42.331Z,26.30
2023-06-25T13:54:09.894Z,26.40
2023-06-25T13:56:36.834Z,26.50
2023-06-25T13:59:04.496Z,26.50
2023-06-25T14:01:31.448Z,26.60
2023-06-25T14:03:59.381Z,26.60
2023-06-25T14:06:29.458Z,26.60
2023-06-25T14:08:58.064Z,26.50
2023-06-25T14:11:26.411Z,26.60
2023-06-25T14:13:58.439Z,26.40
2023-06-25T14:16:31.250Z,26.40
2023-06-25T14:18:58.448Z,26.40
2023-06-25T14:21:30.043Z,26.50
2023-06-25T14:24:01.315Z,26.60
2023-06-25T14:26:30.605Z,26.50
2023-06-25T14:29:10.264Z,26.60
2023-06-25T14:31:40.099Z,26.70
2023-06-25T14:34:07.037Z,26.80
2023-06-25T14:36:34.813Z,26.70
2023-06-25T14:39:05.464Z,26.70
2023-06-25T14:41:32.795Z,26.70
2023-06-25T14:44:01.125Z,26.80
2023-06-25T14:46:28.527Z,26.90
2023-06-25T14:48:55.619Z,26.90
2023-06-25T14:51:23.396Z,26.90
2023-06-25T14:53:53.620Z,26.90
2023-06-25T14:56:20.557Z,26.70
2023-06-25T14:58:49.064Z,26.50
2023-06-25T15:01:16.271Z,26.30
2023-06-25T15:03:44.653Z,26.20
2023-06-25T15:06:18.030Z,26.20
2023-06-25T15:08:55.319Z,26.20
2023-06-25T15:11:22.617Z,26.30
2023-06-25T15:13:51.033Z,26.30
2023-06-25T15:16:17.967Z,26.40
2023-06-25T15:18:44.958Z,26.30
2023-06-25T15:21:12.936Z,26.20
2023-06-25T15:23:42.148Z,26.10
2023-06-25T15:26:10.478Z,26.10
2023-06-25T15:28:41.439Z,26.10
2023-06-25T15:31:10.198Z,26.20
2023-06-25T15:33:41.073Z,26.10
2023-06-25T15:36:10.443Z,26.10
2023-06-25T15:38:37.829Z,26.00
2023-06-25T15:41:06.411Z,26.00
2023-06-25T15:43:33.281Z,26.00
2023-06-25T15:46:00.806Z,26.00
2023-06-25T15:48:27.898Z,26.00
2023-06-25T15:50:57.533Z,26.00
2023-06-25T15:53:24.511Z,26.00
2023-06-25T15:55:51.514Z,26.00
2023-06-25T15:58:22.359Z,26.00
2023-06-25T16:00:49.648Z,25.90
2023-06-25T16:03:17.050Z,25.90
2023-06-25T16:05:44.163Z,25.90
2023-06-25T16:08:13.647Z,25.90
2023-06-25T16:10:46.438Z,25.90
2023-06-25T16:13:13.456Z,25.90
2023-06-25T16:15:40.633Z,25.90
2023-06-25T16:18:11.786Z,25.90
2023-06-25T16:20:40.621Z,25.90
2023-06-25T16:23:09.787Z,25.90
2023-06-25T16:25:37.046Z,25.90
2023-06-25T16:28:04.505Z,25.90
2023-06-25T16:30:32.076Z,25.80
2023-06-25T16:32:59.089Z,25.80
2023-06-25T16:35:26.124Z,25.80
2023-06-25T16:37:54.433Z,25.70
2023-06-25T16:40:25.075Z,25.70
2023-06-25T16:42:53.366Z,25.70
2023-06-25T16:45:27.549Z,25.70
2023-06-25T16:47:54.798Z,25.70
2023-06-25T16:50:24.511Z,25.70
2023-06-25T16:52:51.477Z,25.60
2023-06-25T16:55:19.505Z,25.60
2023-06-25T16:57:46.503Z,25.50
2023-06-25T17:00:13.660Z,25.50
2023-06-25T17:02:42.092Z,25.50
2023-06-25T17:05:10.849Z,25.40
2023-06-25T17:07:37.970Z,25.40
2023-06-25T17:10:07.476Z,25.30
2023-06-25T17:12:36.106Z,25.30
2023-06-25T17:15:05.657Z,25.30
2023-06-25T17:17:32.706Z,25.30
2023-06-25T17:20:04.219Z,25.30
2023-06-25T17:22:31.148Z,25.20
2023-06-25T17:25:01.550Z,25.20
2023-06-25T17:27:32.262Z,25.10
2023-06-25T17:29:59.545Z,25.10
2023-06-25T17:32:29.785Z,25.00
2023-06-25T17:34:56.750Z,25.00
2023-06-25T17:37:26.716Z,24.90
2023-06-25T17:39:53.846Z,24.90
2023-06-25T17:42:21.469Z,24.80
2023-06-25T17:44:48.382Z,24.70
2023-06-25T17:47:20.061Z,24.70
2023-06-25T17:49:48.493Z,24.60
2023-06-25T17:52:20.148Z,24.50
2023-06-25T17:54:47.148Z,24.50
2023-06-25T17:57:14.878Z,24.40
2023-06-25T17:59:44.287Z,24.30
2023-06-25T18:02:13.622Z,24.30
2023-06-25T18:04:44.477Z,24.20
2023-06-25T18:07:15.126Z,24.10
2023-06-25T18:09:43.521Z,24.00
2023-06-25T18:12:13.580Z,23.90
2023-06-25T18:14:41.629Z,23.70
2023-06-25T18:17:09.012Z,23.60
2023-06-25T18:19:36.481Z,23.50
2023-06-25T18:22:04.432Z,23.40
2023-06-25T18:24:31.799Z,23.40
2023-06-25T18:26:59.820Z,23.30
2023-06-25T18:29:30.145Z,23.20
2023-06-25T18:31:57.687Z,23.10
2023-06-25T18:34:25.427Z,23.00
2023-06-25T18:36:53.250Z,23.00
2023-06-25T18:39:20.341Z,22.90
2023-06-25T18:41:49.469Z,22.80
2023-06-25T18:44:17.764Z,22.60
2023-06-25T18:46:47.462Z,22.60
2023-06-25T18:49:15.480Z,22.50
2023-06-25T18:51:46.664Z,22.30
2023-06-25T18:54:15.792Z,22.30
2023-06-25T18:56:46.366Z,22.20
2023-06-25T18:59:17.611Z,22.10
2023-06-25T19:01:44.706Z,22.00
2023-06-25T19:04:14.688Z,21.90
2023-06-25T19:06:41.792Z,21.70
2023-06-25T19:09:11.152Z,21.70
2023-06-25T19:11:39.103Z,21.60
2023-06-25T19:14:07.527Z,21.40
2023-06-25T19:16:34.761Z,21.30
2023-06-25T19:19:04.157Z,21.10
2023-06-25T19:21:31.034Z,21.10
2023-06-25T19:23:58.021Z,21.00
2023-06-25T19:26:25.113Z,21.00
2023-06-25T19:28:53.534Z,20.80
2023-06-25T19:31:20.560Z,20.60
2023-06-25T19:33:48.517Z,20.60
2023-06-25T19:36:15.529Z,20.60
2023-06-25T19:38:44.404Z,20.60
2023-06-25T19:41:12.918Z,20.50
2023-06-25T19:43:41.747Z,20.40
2023-06-25T19:46:09.174Z,20.40
2023-06-25T19:48:36.521Z,20.20
2023-06-25T19:51:03.685Z,20.20
2023-06-25T19:53:33.543Z,20.20
2023-06-25T19:56:01.988Z,20.10
2023-06-25T19:58:30.329Z,20.00
2023-06-25T20:00:57.393Z,20.00
2023-06-25T20:03:24.278Z,19.90
2023-06-25T20:05:52.475Z,19.70
2023-06-25T20:08:19.375Z,19.60
2023-06-25T20:10:46.445Z,19.60
2023-06-25T20:13:14.776Z,19.60
2023-06-25T20:15:43.915Z,19.60
2023-06-25T20:18:16.578Z,19.50
2023-06-25T20:20:44.483Z,19.50
2023-06-25T20:23:14.583Z,19.30
2023-06-25T20:25:43.062Z,19.20
2023-06-25T20:28:09.968Z,19.20
2023-06-25T20:30:37.262Z,19.20
2023-06-25T20:33:06.423Z,19.10
2023-06-25T20:35:35.433Z,19.10
2023-06-25T20:38:06.618Z,19.00
2023-06-25T20:40:33.829Z,18.90
2023-06-25T20:43:01.924Z,18.90
2023-06-25T20:45:32.358Z,18.80
2023-06-25T20:47:59.408Z,18.90
2023-06-25T20:50:27.134Z,18.80
2023-06-25T20:52:56.537Z,18.60
2023-06-25T20:55:24.460Z,18.60
2023-06-25T20:57:52.496Z,18.50
2023-06-25T21:00:22.389Z,18.50
2023-06-25T21:02:57.192Z,18.50
2023-06-25T21:05:24.571Z,18.50
2023-06-25T21:07:56.611Z,18.40
2023-06-25T21:10:25.139Z,18.50
2023-06-25T21:12:53.592Z,18.40
2023-06-25T21:15:23.916Z,18.40
2023-06-25T21:17:52.578Z,18.40
2023-06-25T21:20:22.636Z,18.30
2023-06-25T21:22:49.574Z,18.30
2023-06-25T21:25:17.461Z,18.30
2023-06-25T21:27:44.422Z,18.10
2023-06-25T21:30:15.055Z,18.00
2023-06-25T21:33:02.104Z,17.90
2023-06-25T21:35:29.072Z,17.90
2023-06-25T21:37:58.966Z,17.80
2023-06-25T21:40:27.207Z,17.80
2023-06-25T21:42:54.342Z,17.80
2023-06-25T21:45:25.805Z,17.80
2023-06-25T21:47:54.555Z,17.80
2023-06-25T21:50:25.406Z,17.80
2023-06-25T21:52:53.979Z,17.70
2023-06-25T21:55:21.136Z,17.70
2023-06-25T21:57:48.484Z,17.70
2023-06-25T22:00:18.343Z,17.70
2023-06-25T22:02:50.306Z,17.60
2023-06-25T22:05:18.281Z,17.50
2023-06-25T22:07:45.560Z,17.50
2023-06-25T22:10:12.549Z,17.60
2023-06-25T22:12:40.451Z,17.60
2023-06-25T22:15:09.594Z,17.60
2023-06-25T22:17:39.502Z,17.70
2023-06-25T22:20:08.651Z,17.70
2023-06-25T22:22:35.565Z,17.50
2023-06-25T22:25:02.574Z,17.50
2023-06-25T22:27:39.573Z,17.60
2023-06-25T22:30:15.045Z,17.50
2023-06-25T22:32:44.712Z,17.40
2023-06-25T22:35:16.176Z,17.40
2023-06-25T22:37:48.189Z,17.50
2023-06-25T22:40:16.019Z,17.30
2023-06-25T22:42:44.034Z,17.30
2023-06-25T22:45:13.579Z,17.40
2023-06-25T22:47:40.649Z,17.20
2023-06-25T22:50:11.690Z,17.10
2023-06-25T22:52:43.506Z,17.00
2023-06-25T22:55:10.562Z,17.00
2023-06-25T22:57:38.782Z,17.00
2023-06-25T23:00:08.157Z,17.00
2023-06-25T23:02:36.632Z,17.10
2023-06-25T23:05:08.713Z,17.00
2023-06-25T23:07:35.652Z,17.00
2023-06-25T23:10:04.058Z,16.90
2023-06-25T23:12:30.930Z,16.80
2023-06-25T23:14:57.993Z,16.80
2023-06-25T23:17:27.416Z,16.70
2023-06-25T23:19:54.328Z,16.70
2023-06-25T23:22:21.663Z,16.70
2023-06-25T23:24:49.266Z,16.60
2023-06-25T23:27:16.162Z,16.60
2023-06-25T23:29:44.545Z,16.70
2023-06-25T23:32:12.959Z,16.60
2023-06-25T23:34:40.963Z,16.60
2023-06-25T23:37:08.946Z,16.70
2023-06-25T23:39:37.425Z,16.70
2023-06-25T23:42:05.538Z,16.60
2023-06-25T23:44:33.013Z,16.50
2023-06-25T23:46:59.949Z,16.50
2023-06-25T23:49:28.116Z,16.60
2023-06-25T23:51:54.963Z,16.50
2023-06-25T23:54:23.223Z,16.60
2023-06-25T23:56:54.515Z,16.50
2023-06-25T23:59:21.411Z,16.50
